createdAt,value
2023-04-15T00:00:15.926Z,18.93
2023-04-15T00:01:20.873Z,18.92
2023-04-15T00:02:23.050Z,18.92
2023-04-15T00:03:25.298Z,18.90
2023-04-15T00:04:28.114Z,18.84
2023-04-15T00:05:30.686Z,18.67
2023-04-15T00:06:32.568Z,18.89
2023-04-15T00:07:34.547Z,18.87
2023-04-15T00:08:36.332Z,18.84
2023-04-15T00:09:38.199Z,18.85
2023-04-15T00:10:40.056Z,18.85
2023-04-15T00:11:42.200Z,18.84
2023-04-15T00:12:44.273Z,18.84
2023-04-15T00:13:46.214Z,18.83
2023-04-15T00:14:47.986Z,18.84
2023-04-15T00:15:49.786Z,18.82
2023-04-15T00:16:56.268Z,18.82
2023-04-15T00:17:58.315Z,18.75
2023-04-15T00:19:00.467Z,18.82
2023-04-15T00:20:02.950Z,18.80
2023-04-15T00:21:05.497Z,18.74
2023-04-15T00:22:08.191Z,18.79
2023-04-15T00:23:09.906Z,18.80
2023-04-15T00:24:11.805Z,18.78
2023-04-15T00:25:13.687Z,18.78
2023-04-15T00:26:15.512Z,18.77
2023-04-15T00:27:18.195Z,18.70
2023-04-15T00:28:20.013Z,18.76
2023-04-15T00:29:22.391Z,18.75
2023-04-15T00:30:24.233Z,18.72
2023-04-15T00:31:26.057Z,18.73
2023-04-15T00:32:27.920Z,18.73
2023-04-15T00:33:29.800Z,18.73
2023-04-15T00:34:31.599Z,18.72
2023-04-15T00:35:33.767Z,18.72
2023-04-15T00:36:35.871Z,18.72
2023-04-15T00:37:37.695Z,18.71
2023-04-15T00:38:39.521Z,18.71
2023-04-15T00:39:41.445Z,18.70
2023-04-15T00:40:43.687Z,18.69
2023-04-15T00:41:46.437Z,18.65
2023-04-15T00:42:48.476Z,18.69
2023-04-15T00:43:50.350Z,18.67
2023-04-15T00:44:52.398Z,18.67
2023-04-15T00:45:56.134Z,18.59
2023-04-15T00:46:59.516Z,18.66
2023-04-15T00:48:01.933Z,18.52
2023-04-15T00:49:07.772Z,18.65
2023-04-15T00:50:11.080Z,18.65
2023-04-15T00:51:14.372Z,18.64
2023-04-15T00:52:16.155Z,18.64
2023-04-15T00:53:18.033Z,18.65
2023-04-15T00:54:19.940Z,18.63
2023-04-15T00:55:21.866Z,18.62
2023-04-15T00:56:24.585Z,18.59
2023-04-15T00:57:27.327Z,18.59
2023-04-15T00:58:29.659Z,18.60
2023-04-15T00:59:31.860Z,18.55
2023-04-15T01:00:34.598Z,18.60
2023-04-15T01:01:36.940Z,18.60
2023-04-15T01:02:39.289Z,18.58
2023-04-15T01:03:41.685Z,18.59
2023-04-15T01:04:43.742Z,18.58
2023-04-15T01:05:46.084Z,18.57
2023-04-15T01:06:47.890Z,18.50
2023-04-15T01:07:49.815Z,18.46
2023-04-15T01:08:51.705Z,18.56
2023-04-15T01:09:53.768Z,18.54
2023-04-15T01:11:02.290Z,18.54
2023-04-15T01:12:05.190Z,18.57
2023-04-15T01:13:07.023Z,18.56
2023-04-15T01:14:10.417Z,18.54
2023-04-15T01:15:12.442Z,18.54
2023-04-15T01:16:14.657Z,18.48
2023-04-15T01:17:17.914Z,18.52
2023-04-15T01:18:20.548Z,18.52
2023-04-15T01:19:22.614Z,18.51
2023-04-15T01:20:24.768Z,18.51
2023-04-15T01:21:26.984Z,18.51
2023-04-15T01:22:28.886Z,18.50
2023-04-15T01:23:31.032Z,18.48
2023-04-15T01:24:34.179Z,18.49
2023-04-15T01:25:36.095Z,18.48
2023-04-15T01:26:39.203Z,18.47
2023-04-15T01:27:43.762Z,18.49
2023-04-15T01:28:45.913Z,18.40
2023-04-15T01:29:48.277Z,18.47
2023-04-15T01:30:50.072Z,18.46
2023-04-15T01:31:53.193Z,18.45
2023-04-15T01:32:55.134Z,18.41
2023-04-15T01:33:56.938Z,18.42
2023-04-15T01:34:58.983Z,18.43
2023-04-15T01:36:00.937Z,18.42
2023-04-15T01:37:02.743Z,18.44
2023-04-15T01:38:09.489Z,18.42
2023-04-15T01:39:13.485Z,18.44
2023-04-15T01:40:15.486Z,18.25
2023-04-15T01:41:17.581Z,18.37
2023-04-15T01:42:21.867Z,18.41
2023-04-15T01:43:24.881Z,18.40
2023-04-15T01:44:28.183Z,18.42
2023-04-15T01:45:30.159Z,18.40
2023-04-15T01:46:32.399Z,18.38
2023-04-15T01:47:35.881Z,18.29
2023-04-15T01:48:37.783Z,18.39
2023-04-15T01:49:39.647Z,18.36
2023-04-15T01:50:41.773Z,18.37
2023-04-15T01:51:43.596Z,18.36
2023-04-15T01:52:45.412Z,18.36
2023-04-15T01:53:47.184Z,18.35
2023-04-15T01:54:49.157Z,18.35
2023-04-15T01:55:52.098Z,18.33
2023-04-15T01:56:54.039Z,18.25
2023-04-15T01:57:56.289Z,18.32
2023-04-15T01:58:58.273Z,18.26
2023-04-15T02:00:00.248Z,18.32
2023-04-15T02:01:03.159Z,18.28
2023-04-15T02:02:06.909Z,18.28
2023-04-15T02:03:08.904Z,18.31
2023-04-15T02:04:16.621Z,18.30
2023-04-15T02:05:18.858Z,18.30
2023-04-15T02:06:22.572Z,18.31
2023-04-15T02:07:24.443Z,18.25
2023-04-15T02:08:26.875Z,18.26
2023-04-15T02:09:28.714Z,18.28
2023-04-15T02:10:30.800Z,18.28
2023-04-15T02:11:35.243Z,18.28
2023-04-15T02:12:39.616Z,18.28
2023-04-15T02:13:41.771Z,18.27
2023-04-15T02:14:43.711Z,18.20
2023-04-15T02:15:49.958Z,18.25
2023-04-15T02:16:54.420Z,18.28
2023-04-15T02:17:57.027Z,18.26
2023-04-15T02:19:00.675Z,18.25
2023-04-15T02:20:03.112Z,18.18
2023-04-15T02:21:07.227Z,18.25
2023-04-15T02:22:09.485Z,18.18
2023-04-15T02:23:11.837Z,18.25
2023-04-15T02:24:13.717Z,18.23
2023-04-15T02:25:20.595Z,18.23
2023-04-15T02:26:25.422Z,18.24
2023-04-15T02:27:29.329Z,18.24
2023-04-15T02:28:31.170Z,18.24
2023-04-15T02:29:33.113Z,18.22
2023-04-15T02:30:36.098Z,18.23
2023-04-15T02:31:40.593Z,18.21
2023-04-15T02:32:45.155Z,18.22
2023-04-15T02:33:47.672Z,18.21
2023-04-15T02:34:49.638Z,18.21
2023-04-15T02:35:53.336Z,18.21
2023-04-15T02:36:57.365Z,18.19
2023-04-15T02:37:59.614Z,18.22
2023-04-15T02:39:01.606Z,18.21
2023-04-15T02:40:05.076Z,18.20
2023-04-15T02:41:06.951Z,18.14
2023-04-15T02:42:10.294Z,18.19
2023-04-15T02:43:12.575Z,18.18
2023-04-15T02:44:14.389Z,18.19
2023-04-15T02:45:16.442Z,18.17
2023-04-15T02:46:19.413Z,18.17
2023-04-15T02:47:21.281Z,18.16
2023-04-15T02:48:24.029Z,18.17
2023-04-15T02:49:26.437Z,18.16
2023-04-15T02:50:28.263Z,18.15
2023-04-15T02:51:32.298Z,18.13
2023-04-15T02:52:34.124Z,18.07
2023-04-15T02:53:36.373Z,18.07
2023-04-15T02:54:38.250Z,18.15
2023-04-15T02:55:40.424Z,18.13
2023-04-15T02:56:42.460Z,17.90
2023-04-15T02:57:44.375Z,18.14
2023-04-15T02:58:46.484Z,18.13
2023-04-15T02:59:48.307Z,18.11
2023-04-15T03:00:51.925Z,18.13
2023-04-15T03:01:53.929Z,18.13
2023-04-15T03:03:03.436Z,18.11
2023-04-15T03:04:05.768Z,18.07
2023-04-15T03:05:11.772Z,18.11
2023-04-15T03:06:15.091Z,18.12
2023-04-15T03:07:18.197Z,17.98
2023-04-15T03:08:21.419Z,18.09
2023-04-15T03:09:23.258Z,18.10
2023-04-15T03:10:25.549Z,18.04
2023-04-15T03:11:27.577Z,18.01
2023-04-15T03:12:30.471Z,18.09
2023-04-15T03:13:32.938Z,18.08
2023-04-15T03:14:39.603Z,18.09
2023-04-15T03:15:41.864Z,18.07
2023-04-15T03:16:43.741Z,18.06
2023-04-15T03:17:46.361Z,18.07
2023-04-15T03:18:48.213Z,18.06
2023-04-15T03:19:50.603Z,17.89
2023-04-15T03:20:52.823Z,18.00
2023-04-15T03:21:54.896Z,18.05
2023-04-15T03:22:57.019Z,18.05
2023-04-15T03:24:01.019Z,18.06
2023-04-15T03:25:03.868Z,18.05
2023-04-15T03:26:07.368Z,18.05
2023-04-15T03:27:09.557Z,18.05
2023-04-15T03:28:12.276Z,18.01
2023-04-15T03:29:14.110Z,18.00
2023-04-15T03:30:16.514Z,18.03
2023-04-15T03:31:18.456Z,18.03
2023-04-15T03:32:20.361Z,18.03
2023-04-15T03:33:22.244Z,18.01
2023-04-15T03:34:24.090Z,18.01
2023-04-15T03:35:26.027Z,17.90
2023-04-15T03:36:31.344Z,18.01
2023-04-15T03:37:33.122Z,18.02
2023-04-15T03:38:34.982Z,18.02
2023-04-15T03:39:36.954Z,18.01
2023-04-15T03:40:42.255Z,18.00
2023-04-15T03:41:44.144Z,18.02
2023-04-15T03:42:46.054Z,17.99
2023-04-15T03:43:47.863Z,18.01
2023-04-15T03:44:49.817Z,18.01
2023-04-15T03:45:51.647Z,18.01
2023-04-15T03:46:53.991Z,18.00
2023-04-15T03:47:57.367Z,17.95
2023-04-15T03:49:02.722Z,18.02
2023-04-15T03:50:05.225Z,18.02
2023-04-15T03:51:07.148Z,18.01
2023-04-15T03:52:09.017Z,18.02
2023-04-15T03:53:10.864Z,18.00
2023-04-15T03:54:15.317Z,17.99
2023-04-15T03:55:17.307Z,18.01
2023-04-15T03:56:19.073Z,17.92
2023-04-15T03:57:21.163Z,17.94
2023-04-15T03:58:23.180Z,17.95
2023-04-15T03:59:24.987Z,17.95
2023-04-15T04:00:26.826Z,18.00
2023-04-15T04:01:28.632Z,18.00
2023-04-15T04:02:30.572Z,18.01
2023-04-15T04:03:32.704Z,18.00
2023-04-15T04:04:34.800Z,17.93
2023-04-15T04:05:39.052Z,18.00
2023-04-15T04:06:41.078Z,17.98
2023-04-15T04:07:42.854Z,18.00
2023-04-15T04:08:44.694Z,18.00
2023-04-15T04:09:47.480Z,17.99
2023-04-15T04:10:49.345Z,18.00
2023-04-15T04:11:51.312Z,17.96
2023-04-15T04:12:53.125Z,18.00
2023-04-15T04:13:54.906Z,17.99
2023-04-15T04:14:56.806Z,18.00
2023-04-15T04:15:58.830Z,18.00
2023-04-15T04:17:01.226Z,18.00
2023-04-15T04:18:03.793Z,17.99
2023-04-15T04:19:05.629Z,18.02
2023-04-15T04:20:08.197Z,17.87
2023-04-15T04:21:10.087Z,18.02
2023-04-15T04:22:12.330Z,17.95
2023-04-15T04:23:14.191Z,18.02
2023-04-15T04:24:16.467Z,18.03
2023-04-15T04:25:18.290Z,18.05
2023-04-15T04:26:20.068Z,18.05
2023-04-15T04:27:22.093Z,18.04
2023-04-15T04:28:23.944Z,17.95
2023-04-15T04:29:25.737Z,18.04
2023-04-15T04:30:27.636Z,18.05
2023-04-15T04:31:29.526Z,18.05
2023-04-15T04:32:31.612Z,18.02
2023-04-15T04:33:34.464Z,18.06
2023-04-15T04:34:36.233Z,18.02
2023-04-15T04:35:38.060Z,17.95
2023-04-15T04:36:39.830Z,18.06
2023-04-15T04:37:41.951Z,18.06
2023-04-15T04:38:43.756Z,18.06
2023-04-15T04:39:45.575Z,18.07
2023-04-15T04:40:47.426Z,18.01
2023-04-15T04:41:50.007Z,18.07
2023-04-15T04:42:51.931Z,18.07
2023-04-15T04:43:53.780Z,18.06
2023-04-15T04:44:55.594Z,18.07
2023-04-15T04:45:57.516Z,18.06
2023-04-15T04:46:59.421Z,18.07
2023-04-15T04:48:01.407Z,18.06
2023-04-15T04:49:03.563Z,18.00
2023-04-15T04:50:06.833Z,18.07
2023-04-15T04:51:09.495Z,18.02
2023-04-15T04:52:11.716Z,18.08
2023-04-15T04:53:13.523Z,18.08
2023-04-15T04:54:15.330Z,18.08
2023-04-15T04:55:17.205Z,18.08
2023-04-15T04:56:19.004Z,18.09
2023-04-15T04:57:20.877Z,18.09
2023-04-15T04:58:22.748Z,18.08
2023-04-15T04:59:24.963Z,18.09
2023-04-15T05:00:26.781Z,18.10
2023-04-15T05:01:28.668Z,18.11
2023-04-15T05:02:31.056Z,18.09
2023-04-15T05:03:33.282Z,18.11
2023-04-15T05:04:35.486Z,18.11
2023-04-15T05:05:39.559Z,18.11
2023-04-15T05:06:41.428Z,18.13
2023-04-15T05:07:43.438Z,18.13
2023-04-15T05:08:46.684Z,18.13
2023-04-15T05:09:48.515Z,18.14
2023-04-15T05:10:50.529Z,18.09
2023-04-15T05:11:52.396Z,18.14
2023-04-15T05:12:54.255Z,18.14
2023-04-15T05:13:56.143Z,18.15
2023-04-15T05:14:58.108Z,18.16
2023-04-15T05:16:00.013Z,18.11
2023-04-15T05:17:01.789Z,18.16
2023-04-15T05:18:03.584Z,18.17
2023-04-15T05:19:05.780Z,18.18
2023-04-15T05:20:08.433Z,18.17
2023-04-15T05:21:10.493Z,18.18
2023-04-15T05:22:12.347Z,18.17
2023-04-15T05:23:14.153Z,18.18
2023-04-15T05:24:15.907Z,18.15
2023-04-15T05:25:17.991Z,18.19
2023-04-15T05:26:19.989Z,18.19
2023-04-15T05:27:22.772Z,18.19
2023-04-15T05:28:24.537Z,18.15
2023-04-15T05:29:26.306Z,18.20
2023-04-15T05:30:28.085Z,18.18
2023-04-15T05:31:29.902Z,18.21
2023-04-15T05:32:32.028Z,18.20
2023-04-15T05:33:33.989Z,18.02
2023-04-15T05:34:35.927Z,18.20
2023-04-15T05:35:37.835Z,18.21
2023-04-15T05:36:39.589Z,18.22
2023-04-15T05:37:41.557Z,18.22
2023-04-15T05:38:43.358Z,18.16
2023-04-15T05:39:45.254Z,18.19
2023-04-15T05:40:47.096Z,18.23
2023-04-15T05:41:48.881Z,18.21
2023-04-15T05:42:51.324Z,18.22
2023-04-15T05:43:53.135Z,18.00
2023-04-15T05:44:55.134Z,18.24
2023-04-15T05:45:57.008Z,18.18
2023-04-15T05:46:58.802Z,18.24
2023-04-15T05:48:00.772Z,18.24
2023-04-15T05:49:02.802Z,18.23
2023-04-15T05:50:05.234Z,18.25
2023-04-15T05:51:07.146Z,18.26
2023-04-15T05:52:08.964Z,18.26
2023-04-15T05:53:10.831Z,18.13
2023-04-15T05:54:12.639Z,18.18
2023-04-15T05:55:14.592Z,18.26
2023-04-15T05:56:16.494Z,18.26
2023-04-15T05:57:18.440Z,18.17
2023-04-15T05:58:20.245Z,18.26
2023-04-15T05:59:22.052Z,18.27
2023-04-15T06:00:23.822Z,18.27
2023-04-15T06:01:26.244Z,18.26
2023-04-15T06:02:28.156Z,18.27
2023-04-15T06:03:30.706Z,18.27
2023-04-15T06:04:32.935Z,18.28
2023-04-15T06:05:34.859Z,18.27
2023-04-15T06:06:37.287Z,18.27
2023-04-15T06:07:39.186Z,18.28
2023-04-15T06:08:41.578Z,18.30
2023-04-15T06:09:43.351Z,18.31
2023-04-15T06:10:45.185Z,18.31
2023-04-15T06:11:47.055Z,18.27
2023-04-15T06:12:48.867Z,18.34
2023-04-15T06:13:50.739Z,18.36
2023-04-15T06:14:52.545Z,18.38
2023-04-15T06:15:54.712Z,18.42
2023-04-15T06:16:56.517Z,18.45
2023-04-15T06:17:58.523Z,18.46
2023-04-15T06:19:00.431Z,18.49
2023-04-15T06:20:02.354Z,18.46
2023-04-15T06:21:04.803Z,18.49
2023-04-15T06:22:07.355Z,18.59
2023-04-15T06:23:09.174Z,18.58
2023-04-15T06:24:11.860Z,18.65
2023-04-15T06:25:14.216Z,18.68
2023-04-15T06:26:16.290Z,18.71
2023-04-15T06:27:18.693Z,18.72
2023-04-15T06:28:20.534Z,18.79
2023-04-15T06:29:22.341Z,18.82
2023-04-15T06:30:24.541Z,18.85
2023-04-15T06:31:26.894Z,18.89
2023-04-15T06:32:28.768Z,18.92
2023-04-15T06:33:30.756Z,18.95
2023-04-15T06:34:32.521Z,18.99
2023-04-15T06:35:34.330Z,18.98
2023-04-15T06:36:36.318Z,19.04
2023-04-15T06:37:38.130Z,18.99
2023-04-15T06:38:39.972Z,19.11
2023-04-15T06:39:43.024Z,19.09
2023-04-15T06:40:44.957Z,19.06
2023-04-15T06:41:46.914Z,19.18
2023-04-15T06:42:48.911Z,19.14
2023-04-15T06:43:51.490Z,19.22
2023-04-15T06:44:53.354Z,19.25
2023-04-15T06:45:55.173Z,19.26
2023-04-15T06:46:57.068Z,19.22
2023-04-15T06:47:58.963Z,19.24
2023-04-15T06:49:00.859Z,19.31
2023-04-15T06:50:04.018Z,19.33
2023-04-15T06:51:06.209Z,19.35
2023-04-15T06:52:08.217Z,19.35
2023-04-15T06:53:10.127Z,19.38
2023-04-15T06:54:12.106Z,19.38
2023-04-15T06:55:14.789Z,19.38
2023-04-15T06:56:16.527Z,19.41
2023-04-15T06:57:18.301Z,19.42
2023-04-15T06:58:20.277Z,19.42
2023-04-15T06:59:22.061Z,19.44
2023-04-15T07:00:23.909Z,19.44
2023-04-15T07:01:26.233Z,19.45
2023-04-15T07:02:28.081Z,19.46
2023-04-15T07:03:32.551Z,19.47
2023-04-15T07:04:34.737Z,19.48
2023-04-15T07:05:36.662Z,19.48
2023-04-15T07:06:38.978Z,19.50
2023-04-15T07:07:41.145Z,19.49
2023-04-15T07:08:43.091Z,19.51
2023-04-15T07:09:45.192Z,19.52
2023-04-15T07:10:47.719Z,19.52
2023-04-15T07:11:49.668Z,19.53
2023-04-15T07:12:51.619Z,19.54
2023-04-15T07:13:53.415Z,19.52
2023-04-15T07:14:55.230Z,19.49
2023-04-15T07:15:57.106Z,19.36
2023-04-15T07:16:58.915Z,19.49
2023-04-15T07:18:00.934Z,19.56
2023-04-15T07:19:03.102Z,19.57
2023-04-15T07:20:05.703Z,19.58
2023-04-15T07:21:07.729Z,19.57
2023-04-15T07:22:09.705Z,19.58
2023-04-15T07:23:12.057Z,19.59
2023-04-15T07:24:16.975Z,19.58
2023-04-15T07:25:19.119Z,19.61
2023-04-15T07:26:21.020Z,19.62
2023-04-15T07:27:22.834Z,19.61
2023-04-15T07:28:24.726Z,19.59
2023-04-15T07:29:27.206Z,19.53
2023-04-15T07:30:29.570Z,19.63
2023-04-15T07:31:31.468Z,19.64
2023-04-15T07:32:33.349Z,19.64
2023-04-15T07:33:35.404Z,19.58
2023-04-15T07:34:38.131Z,19.59
2023-04-15T07:35:40.020Z,19.64
2023-04-15T07:36:42.009Z,19.64
2023-04-15T07:37:43.890Z,19.65
2023-04-15T07:38:45.697Z,19.66
2023-04-15T07:39:48.054Z,19.66
2023-04-15T07:40:49.979Z,19.66
2023-04-15T07:41:51.752Z,19.65
2023-04-15T07:42:53.568Z,19.66
2023-04-15T07:43:55.439Z,19.67
2023-04-15T07:44:57.405Z,19.66
2023-04-15T07:45:59.277Z,19.67
2023-04-15T07:47:03.018Z,19.48
2023-04-15T07:48:05.931Z,19.67
2023-04-15T07:49:07.754Z,19.68
2023-04-15T07:50:11.242Z,19.68
2023-04-15T07:51:13.138Z,19.63
2023-04-15T07:52:15.061Z,19.68
2023-04-15T07:53:16.819Z,19.67
2023-04-15T07:54:18.570Z,19.67
2023-04-15T07:55:22.952Z,19.61
2023-04-15T07:56:24.828Z,19.68
2023-04-15T07:57:26.633Z,19.67
2023-04-15T07:58:28.446Z,19.64
2023-04-15T07:59:31.202Z,19.66
2023-04-15T08:00:33.108Z,19.60
2023-04-15T08:01:35.071Z,19.60
2023-04-15T08:02:39.662Z,19.65
2023-04-15T08:03:43.233Z,19.68
2023-04-15T08:04:45.278Z,19.66
2023-04-15T08:05:47.552Z,19.67
2023-04-15T08:06:50.416Z,19.67
2023-04-15T08:07:52.304Z,19.67
2023-04-15T08:08:54.993Z,19.66
2023-04-15T08:09:56.805Z,19.65
2023-04-15T08:10:59.166Z,19.62
2023-04-15T08:12:01.063Z,19.65
2023-04-15T08:13:02.935Z,19.53
2023-04-15T08:14:04.822Z,19.65
2023-04-15T08:15:08.361Z,19.64
2023-04-15T08:16:25.111Z,19.66
2023-04-15T08:17:27.154Z,19.68
2023-04-15T08:18:28.986Z,19.66
2023-04-15T08:19:30.926Z,19.64
2023-04-15T08:20:32.797Z,19.66
2023-04-15T08:21:34.708Z,19.61
2023-04-15T08:22:36.535Z,19.54
2023-04-15T08:23:39.393Z,19.64
2023-04-15T08:24:41.536Z,19.63
2023-04-15T08:25:43.302Z,19.64
2023-04-15T08:26:45.154Z,19.63
2023-04-15T08:27:47.192Z,19.59
2023-04-15T08:28:49.551Z,19.63
2023-04-15T08:29:51.653Z,19.63
2023-04-15T08:30:53.578Z,19.63
2023-04-15T08:31:55.834Z,19.63
2023-04-15T08:32:57.969Z,19.56
2023-04-15T08:34:00.493Z,19.62
2023-04-15T08:35:02.540Z,19.58
2023-04-15T08:36:04.874Z,19.63
2023-04-15T08:37:07.061Z,19.61
2023-04-15T08:38:08.836Z,19.62
2023-04-15T08:39:10.728Z,19.62
2023-04-15T08:40:12.795Z,19.60
2023-04-15T08:41:27.427Z,19.63
2023-04-15T08:42:37.754Z,19.64
2023-04-15T08:43:48.353Z,19.62
2023-04-15T08:44:51.221Z,19.65
2023-04-15T08:45:53.687Z,19.58
2023-04-15T08:46:57.327Z,19.59
2023-04-15T08:48:00.995Z,19.63
2023-04-15T08:49:09.380Z,19.55
2023-04-15T08:50:11.949Z,19.63
2023-04-15T08:51:16.266Z,19.62
2023-04-15T08:52:18.264Z,19.59
2023-04-15T08:53:20.344Z,19.61
2023-04-15T08:54:22.975Z,19.60
2023-04-15T08:55:29.992Z,19.53
2023-04-15T08:56:35.608Z,19.62
2023-04-15T08:57:38.335Z,19.62
2023-04-15T08:58:40.717Z,19.61
2023-04-15T08:59:43.642Z,19.60
2023-04-15T09:00:46.004Z,19.60
2023-04-15T09:01:50.127Z,19.60
2023-04-15T09:02:52.681Z,19.45
2023-04-15T09:03:55.037Z,19.61
2023-04-15T09:04:57.707Z,19.55
2023-04-15T09:06:00.009Z,19.54
2023-04-15T09:07:02.244Z,19.52
2023-04-15T09:08:05.915Z,19.57
2023-04-15T09:09:08.088Z,19.61
2023-04-15T09:10:10.300Z,19.61
2023-04-15T09:11:12.393Z,19.61
2023-04-15T09:12:14.530Z,19.61
2023-04-15T09:13:16.325Z,19.57
2023-04-15T09:14:18.412Z,19.53
2023-04-15T09:15:20.929Z,19.58
2023-04-15T09:16:23.185Z,19.61
2023-04-15T09:17:26.702Z,19.60
2023-04-15T09:18:30.774Z,19.60
2023-04-15T09:19:34.727Z,19.61
2023-04-15T09:20:42.151Z,19.56
2023-04-15T09:21:47.910Z,19.57
2023-04-15T09:22:51.210Z,19.63
2023-04-15T09:23:58.968Z,19.55
2023-04-15T09:25:01.551Z,19.61
2023-04-15T09:26:04.231Z,19.59
2023-04-15T09:27:06.564Z,19.60
2023-04-15T09:28:08.836Z,19.53
2023-04-15T09:29:13.659Z,19.60
2023-04-15T09:30:16.482Z,19.54
2023-04-15T09:31:29.752Z,19.60
2023-04-15T09:32:31.568Z,19.63
2023-04-15T09:33:33.628Z,19.62
2023-04-15T09:34:37.114Z,19.61
2023-04-15T09:35:38.944Z,19.55
2023-04-15T09:36:54.553Z,19.52
2023-04-15T09:38:08.100Z,19.66
2023-04-15T09:39:09.928Z,19.59
2023-04-15T09:40:12.473Z,19.64
2023-04-15T09:41:20.516Z,19.62
2023-04-15T09:42:27.053Z,19.65
2023-04-15T09:43:40.038Z,19.67
2023-04-15T09:44:41.949Z,19.68
2023-04-15T09:45:52.189Z,19.67
2023-04-15T09:46:54.118Z,19.69
2023-04-15T09:47:59.230Z,19.66
2023-04-15T09:49:11.764Z,19.68
2023-04-15T09:50:14.737Z,19.62
2023-04-15T09:51:16.500Z,19.69
2023-04-15T09:52:18.264Z,19.69
2023-04-15T09:53:22.061Z,19.67
2023-04-15T09:54:23.850Z,19.62
2023-04-15T09:55:25.620Z,19.68
2023-04-15T09:56:36.288Z,19.68
2023-04-15T09:57:40.246Z,19.72
2023-04-15T09:58:43.240Z,19.73
2023-04-15T09:59:45.042Z,19.72
2023-04-15T10:00:51.202Z,19.68
2023-04-15T10:01:53.450Z,19.69
2023-04-15T10:02:56.360Z,19.74
2023-04-15T10:03:58.763Z,19.74
2023-04-15T10:05:02.447Z,19.73
2023-04-15T10:06:05.625Z,19.74
2023-04-15T10:07:12.825Z,19.74
2023-04-15T10:08:17.801Z,19.74
2023-04-15T10:09:19.852Z,19.69
2023-04-15T10:10:21.707Z,19.76
2023-04-15T10:11:25.115Z,19.76
2023-04-15T10:12:27.792Z,19.76
2023-04-15T10:13:35.083Z,19.75
2023-04-15T10:14:38.951Z,19.76
2023-04-15T10:15:43.929Z,19.77
2023-04-15T10:16:49.211Z,19.69
2023-04-15T10:17:52.336Z,19.78
2023-04-15T10:18:59.960Z,19.76
2023-04-15T10:20:03.988Z,19.79
2023-04-15T10:21:06.641Z,19.80
2023-04-15T10:22:08.714Z,19.78
2023-04-15T10:23:13.381Z,19.78
2023-04-15T10:24:16.615Z,19.77
2023-04-15T10:25:19.172Z,19.74
2023-04-15T10:26:21.542Z,19.78
2023-04-15T10:27:24.571Z,19.76
2023-04-15T10:28:26.914Z,19.76
2023-04-15T10:29:29.749Z,19.78
2023-04-15T10:30:33.304Z,19.75
2023-04-15T10:31:38.428Z,19.78
2023-04-15T10:32:41.435Z,19.79
2023-04-15T10:33:44.524Z,19.79
2023-04-15T10:34:48.762Z,19.73
2023-04-15T10:35:52.108Z,19.79
2023-04-15T10:36:58.498Z,19.79
2023-04-15T10:38:00.646Z,19.82
2023-04-15T10:39:02.595Z,19.81
2023-04-15T10:40:27.470Z,19.86
2023-04-15T10:41:34.595Z,19.80
2023-04-15T10:42:36.553Z,19.86
2023-04-15T10:43:38.630Z,19.84
2023-04-15T10:44:43.877Z,19.84
2023-04-15T10:45:46.059Z,19.84
2023-04-15T10:46:47.873Z,19.76
2023-04-15T10:47:55.289Z,19.83
2023-04-15T10:48:57.776Z,19.84
2023-04-15T10:50:01.681Z,19.83
2023-04-15T10:51:03.972Z,19.86
2023-04-15T10:52:08.507Z,19.84
2023-04-15T10:53:11.177Z,19.85
2023-04-15T10:54:39.441Z,19.84
2023-04-15T10:55:41.402Z,19.92
2023-04-15T10:56:45.093Z,19.90
2023-04-15T10:57:47.000Z,19.82
2023-04-15T10:58:49.033Z,19.88
2023-04-15T10:59:58.310Z,19.88
2023-04-15T11:01:02.817Z,19.89
2023-04-15T11:02:07.541Z,19.89
2023-04-15T11:03:10.044Z,19.89
2023-04-15T11:04:12.219Z,19.91
2023-04-15T11:05:16.341Z,19.89
2023-04-15T11:06:18.239Z,19.85
2023-04-15T11:07:49.106Z,19.98
2023-04-15T11:08:59.583Z,19.98
2023-04-15T11:10:02.020Z,19.90
2023-04-15T11:11:04.020Z,19.92
2023-04-15T11:12:10.558Z,19.88
2023-04-15T11:13:12.408Z,19.95
2023-04-15T11:14:17.354Z,19.94
2023-04-15T11:15:32.557Z,19.95
2023-04-15T11:16:43.267Z,19.98
2023-04-15T11:17:46.459Z,19.98
2023-04-15T11:18:56.084Z,19.97
2023-04-15T11:19:58.564Z,19.90
2023-04-15T11:21:05.658Z,19.96
2023-04-15T11:22:11.516Z,19.98
2023-04-15T11:23:15.816Z,19.98
2023-04-15T11:24:27.277Z,19.99
2023-04-15T11:25:31.163Z,20.00
2023-04-15T11:26:33.384Z,19.94
2023-04-15T11:27:35.140Z,19.93
2023-04-15T11:28:38.812Z,19.92
2023-04-15T11:29:41.241Z,19.99
2023-04-15T11:30:43.871Z,19.88
2023-04-15T11:31:49.726Z,19.99
2023-04-15T11:32:53.600Z,20.00
2023-04-15T11:33:59.045Z,19.99
2023-04-15T11:35:00.906Z,19.93
2023-04-15T11:36:04.318Z,20.01
2023-04-15T11:37:06.581Z,19.98
2023-04-15T11:38:13.951Z,19.99
2023-04-15T11:39:16.814Z,20.00
2023-04-15T11:40:23.954Z,19.99
2023-04-15T11:41:25.947Z,20.01
2023-04-15T11:42:36.201Z,19.99
2023-04-15T11:43:44.963Z,20.03
2023-04-15T11:44:46.787Z,20.02
2023-04-15T11:46:01.075Z,20.02
2023-04-15T11:47:21.903Z,19.99
2023-04-15T11:48:27.226Z,20.05
2023-04-15T11:49:31.260Z,20.04
2023-04-15T11:50:33.427Z,20.02
2023-04-15T11:51:35.730Z,20.01
2023-04-15T11:52:37.540Z,20.01
2023-04-15T11:53:47.843Z,20.00
2023-04-15T11:54:49.663Z,19.96
2023-04-15T11:55:54.051Z,19.99
2023-04-15T11:56:56.879Z,20.00
2023-04-15T11:58:12.839Z,20.01
2023-04-15T11:59:15.850Z,20.04
2023-04-15T12:00:18.051Z,20.02
2023-04-15T12:01:20.100Z,19.99
2023-04-15T12:02:32.086Z,19.93
2023-04-15T12:03:39.639Z,19.94
2023-04-15T12:04:42.315Z,20.00
2023-04-15T12:06:21.354Z,20.05
2023-04-15T12:07:23.169Z,20.09
2023-04-15T12:08:25.029Z,20.04
2023-04-15T12:09:27.088Z,20.01
2023-04-15T12:10:31.925Z,19.93
2023-04-15T12:11:42.331Z,19.98
2023-04-15T12:12:48.878Z,20.01
2023-04-15T12:13:51.479Z,19.92
2023-04-15T12:14:53.388Z,19.99
2023-04-15T12:15:56.128Z,19.89
2023-04-15T12:17:00.443Z,19.94
2023-04-15T12:18:02.929Z,19.98
2023-04-15T12:19:11.058Z,19.97
2023-04-15T12:20:12.837Z,19.99
2023-04-15T12:21:14.860Z,19.98
2023-04-15T12:22:20.357Z,19.96
2023-04-15T12:23:22.136Z,19.90
2023-04-15T12:24:24.003Z,19.97
2023-04-15T12:25:35.756Z,19.92
2023-04-15T12:26:44.174Z,20.00
2023-04-15T12:27:52.483Z,20.00
2023-04-15T12:28:56.375Z,19.98
2023-04-15T12:30:05.573Z,19.92
2023-04-15T12:31:08.956Z,20.00
2023-04-15T12:32:15.876Z,19.90
2023-04-15T12:33:17.981Z,20.00
2023-04-15T12:34:28.029Z,19.99
2023-04-15T12:35:30.138Z,20.00
2023-04-15T12:36:36.319Z,19.99
2023-04-15T12:37:38.161Z,19.98
2023-04-15T12:38:39.973Z,19.99
2023-04-15T12:39:43.588Z,19.92
2023-04-15T12:40:47.444Z,19.87
2023-04-15T12:41:49.240Z,19.93
2023-04-15T12:42:51.207Z,19.94
2023-04-15T12:43:53.152Z,19.98
2023-04-15T12:44:54.920Z,19.89
2023-04-15T12:45:56.934Z,19.97
2023-04-15T12:47:00.163Z,19.94
2023-04-15T12:48:02.196Z,19.89
2023-04-15T12:49:04.810Z,19.95
2023-04-15T12:50:07.371Z,19.97
2023-04-15T12:51:09.431Z,19.97
2023-04-15T12:52:11.336Z,19.95
2023-04-15T12:53:13.125Z,19.98
2023-04-15T12:54:15.154Z,19.98
2023-04-15T12:55:17.348Z,19.97
2023-04-15T12:56:19.249Z,19.87
2023-04-15T12:57:21.224Z,19.98
2023-04-15T12:58:23.237Z,19.96
2023-04-15T12:59:25.627Z,19.98
2023-04-15T13:00:27.519Z,19.98
2023-04-15T13:01:29.526Z,19.99
2023-04-15T13:02:31.617Z,19.99
2023-04-15T13:03:33.964Z,20.00
2023-04-15T13:04:36.184Z,19.91
2023-04-15T13:05:39.908Z,19.99
2023-04-15T13:06:42.057Z,20.00
2023-04-15T13:07:43.916Z,19.99
2023-04-15T13:08:57.310Z,19.92
2023-04-15T13:10:00.610Z,20.03
2023-04-15T13:11:02.457Z,20.01
2023-04-15T13:12:05.501Z,19.99
2023-04-15T13:13:07.370Z,20.00
2023-04-15T13:14:11.507Z,19.95
2023-04-15T13:15:13.487Z,20.00
2023-04-15T13:16:15.768Z,19.99
2023-04-15T13:17:20.576Z,19.97
2023-04-15T13:18:23.674Z,19.99
2023-04-15T13:19:25.735Z,19.99
2023-04-15T13:20:27.982Z,19.99
2023-04-15T13:21:32.303Z,19.99
2023-04-15T13:22:34.229Z,19.97
2023-04-15T13:23:36.355Z,19.93
2023-04-15T13:24:39.410Z,19.98
2023-04-15T13:25:41.294Z,19.98
2023-04-15T13:26:43.139Z,19.97
2023-04-15T13:27:44.960Z,19.93
2023-04-15T13:28:47.010Z,19.97
2023-04-15T13:29:48.883Z,19.97
2023-04-15T13:30:51.089Z,19.96
2023-04-15T13:31:52.981Z,19.97
2023-04-15T13:32:54.828Z,19.90